Terminal Aerodrome Forecast
Issued by NWS

Home | Current Version | Previous Version | Graphics & Text | Print | Product List | Glossary On
Versions: 1 2 3 4 5 6 7 8 9 10 11 12 13 14 15 16
693
FTUS43 KBIS 191039 AAA
TAFMOT
TAF AMD
KMOT 191039Z 1911/2006 25011KT P6SM OVC100 WS020/29045KT
     FM191200 26011KT P6SM BKN080 OVC100
     FM191600 26011KT P6SM FEW110 SCT180
     FM191900 25011KT P6SM FEW200=

USA.gov is the U.S. government's official web portal to all federal, state and local government web resources and services.